sensor_id;sensor_type;location;lat;lon;timestamp;P1;durP1;ratioP1;P2;durP2;ratioP2
28188;SDS011;15471;51.166;4.470;2022-12-18T00:01:36;0.80;;;0.80;;
28188;SDS011;15471;51.166;4.470;2022-12-18T00:04:04;0.75;;;0.75;;
28188;SDS011;15471;51.166;4.470;2022-12-18T00:06:33;0.70;;;0.70;;
28188;SDS011;15471;51.166;4.470;2022-12-18T00:09:00;0.80;;;0.80;;
28188;SDS011;15471;51.166;4.470;2022-12-18T00:11:29;0.70;;;0.70;;
28188;SDS011;15471;51.166;4.470;2022-12-18T00:13:57;0.70;;;0.70;;
28188;SDS011;15471;51.166;4.470;2022-12-18T00:16:24;0.70;;;0.70;;
28188;SDS011;15471;51.166;4.470;2022-12-18T00:18:53;0.70;;;0.70;;
28188;SDS011;15471;51.166;4.470;2022-12-18T00:21:20;0.70;;;0.70;;
28188;SDS011;15471;51.166;4.470;2022-12-18T00:23:46;0.70;;;0.70;;
28188;SDS011;15471;51.166;4.470;2022-12-18T00:26:15;0.70;;;0.70;;
28188;SDS011;15471;51.166;4.470;2022-12-18T00:28:49;0.70;;;0.70;;
28188;SDS011;15471;51.166;4.470;2022-12-18T00:31:17;0.70;;;0.70;;
28188;SDS011;15471;51.166;4.470;2022-12-18T00:33:44;0.75;;;0.75;;
28188;SDS011;15471;51.166;4.470;2022-12-18T00:36:11;0.70;;;0.70;;
28188;SDS011;15471;51.166;4.470;2022-12-18T00:38:39;0.70;;;0.70;;
28188;SDS011;15471;51.166;4.470;2022-12-18T00:41:06;0.60;;;0.60;;
28188;SDS011;15471;51.166;4.470;2022-12-18T00:43:34;0.80;;;0.80;;
28188;SDS011;15471;51.166;4.470;2022-12-18T00:46:01;0.70;;;0.70;;
28188;SDS011;15471;51.166;4.470;2022-12-18T00:48:27;0.80;;;0.80;;
28188;SDS011;15471;51.166;4.470;2022-12-18T00:50:53;0.80;;;0.80;;
28188;SDS011;15471;51.166;4.470;2022-12-18T00:53:19;0.70;;;0.70;;
28188;SDS011;15471;51.166;4.470;2022-12-18T00:55:45;0.70;;;0.70;;
28188;SDS011;15471;51.166;4.470;2022-12-18T00:58:12;0.80;;;0.80;;
28188;SDS011;15471;51.166;4.470;2022-12-18T01:00:39;0.75;;;0.75;;
28188;SDS011;15471;51.166;4.470;2022-12-18T01:03:10;0.70;;;0.70;;
28188;SDS011;15471;51.166;4.470;2022-12-18T01:05:39;0.80;;;0.80;;
28188;SDS011;15471;51.166;4.470;2022-12-18T01:08:06;0.70;;;0.70;;
28188;SDS011;15471;51.166;4.470;2022-12-18T01:10:32;0.77;;;0.77;;
28188;SDS011;15471;51.166;4.470;2022-12-18T01:12:58;0.80;;;0.80;;
28188;SDS011;15471;51.166;4.470;2022-12-18T01:15:24;0.70;;;0.70;;
28188;SDS011;15471;51.166;4.470;2022-12-18T01:17:51;0.80;;;0.80;;
28188;SDS011;15471;51.166;4.470;2022-12-18T01:20:18;0.80;;;0.80;;
28188;SDS011;15471;51.166;4.470;2022-12-18T01:22:43;0.80;;;0.80;;
28188;SDS011;15471;51.166;4.470;2022-12-18T01:25:09;0.80;;;0.80;;
28188;SDS011;15471;51.166;4.470;2022-12-18T01:27:35;0.70;;;0.70;;
28188;SDS011;15471;51.166;4.470;2022-12-18T01:30:02;0.70;;;0.70;;
28188;SDS011;15471;51.166;4.470;2022-12-18T01:32:29;0.75;;;0.75;;
28188;SDS011;15471;51.166;4.470;2022-12-18T01:34:56;0.80;;;0.80;;
28188;SDS011;15471;51.166;4.470;2022-12-18T01:37:22;0.80;;;0.80;;
28188;SDS011;15471;51.166;4.470;2022-12-18T01:39:48;0.80;;;0.80;;
28188;SDS011;15471;51.166;4.470;2022-12-18T01:42:15;0.80;;;0.80;;
28188;SDS011;15471;51.166;4.470;2022-12-18T01:45:26;0.77;;;0.77;;
28188;SDS011;15471;51.166;4.470;2022-12-18T01:50:21;0.80;;;0.80;;
28188;SDS011;15471;51.166;4.470;2022-12-18T01:52:56;0.90;;;0.90;;
28188;SDS011;15471;51.166;4.470;2022-12-18T01:55:31;0.80;;;0.80;;
28188;SDS011;15471;51.166;4.470;2022-12-18T01:58:02;0.80;;;0.80;;
28188;SDS011;15471;51.166;4.470;2022-12-18T02:00:29;0.80;;;0.80;;
28188;SDS011;15471;51.166;4.470;2022-12-18T02:02:55;0.80;;;0.80;;
28188;SDS011;15471;51.166;4.470;2022-12-18T02:09:02;0.88;;;0.88;;
28188;SDS011;15471;51.166;4.470;2022-12-18T02:11:39;0.90;;;0.90;;
28188;SDS011;15471;51.166;4.470;2022-12-18T02:19:39;0.90;;;0.90;;
28188;SDS011;15471;51.166;4.470;2022-12-18T02:25:05;0.80;;;0.80;;
28188;SDS011;15471;51.166;4.470;2022-12-18T02:27:40;0.80;;;0.80;;
28188;SDS011;15471;51.166;4.470;2022-12-18T02:30:09;0.90;;;0.90;;
28188;SDS011;15471;51.166;4.470;2022-12-18T02:32:40;0.75;;;0.75;;
28188;SDS011;15471;51.166;4.470;2022-12-18T02:35:14;0.80;;;0.80;;
28188;SDS011;15471;51.166;4.470;2022-12-18T02:37:43;0.80;;;0.80;;
28188;SDS011;15471;51.166;4.470;2022-12-18T02:40:11;0.85;;;0.85;;
28188;SDS011;15471;51.166;4.470;2022-12-18T02:42:39;0.80;;;0.80;;
28188;SDS011;15471;51.166;4.470;2022-12-18T02:45:07;0.90;;;0.90;;
28188;SDS011;15471;51.166;4.470;2022-12-18T02:47:36;0.82;;;0.82;;
28188;SDS011;15471;51.166;4.470;2022-12-18T03:07:16;0.80;;;0.80;;
28188;SDS011;15471;51.166;4.470;2022-12-18T03:09:50;0.90;;;0.90;;
28188;SDS011;15471;51.166;4.470;2022-12-18T03:12:26;0.90;;;0.90;;
28188;SDS011;15471;51.166;4.470;2022-12-18T03:18:07;0.90;;;0.90;;
28188;SDS011;15471;51.166;4.470;2022-12-18T03:20:38;0.80;;;0.80;;
28188;SDS011;15471;51.166;4.470;2022-12-18T03:23:11;0.90;;;0.90;;
28188;SDS011;15471;51.166;4.470;2022-12-18T03:25:44;0.88;;;0.88;;
28188;SDS011;15471;51.166;4.470;2022-12-18T03:28:14;0.90;;;0.90;;
28188;SDS011;15471;51.166;4.470;2022-12-18T03:33:13;0.82;;;0.82;;
28188;SDS011;15471;51.166;4.470;2022-12-18T03:35:50;0.70;;;0.70;;
28188;SDS011;15471;51.166;4.470;2022-12-18T03:38:17;0.80;;;0.80;;
28188;SDS011;15471;51.166;4.470;2022-12-18T03:41:07;0.90;;;0.90;;
28188;SDS011;15471;51.166;4.470;2022-12-18T03:44:20;0.90;;;0.90;;
28188;SDS011;15471;51.166;4.470;2022-12-18T03:47:06;0.90;;;0.90;;
28188;SDS011;15471;51.166;4.470;2022-12-18T03:49:59;0.80;;;0.80;;
28188;SDS011;15471;51.166;4.470;2022-12-18T03:52:41;0.80;;;0.80;;
28188;SDS011;15471;51.166;4.470;2022-12-18T03:55:24;0.80;;;0.80;;
28188;SDS011;15471;51.166;4.470;2022-12-18T03:57:58;0.90;;;0.90;;
28188;SDS011;15471;51.166;4.470;2022-12-18T04:00:36;0.90;;;0.90;;
28188;SDS011;15471;51.166;4.470;2022-12-18T04:03:06;0.90;;;0.90;;
28188;SDS011;15471;51.166;4.470;2022-12-18T04:05:40;0.90;;;0.90;;
28188;SDS011;15471;51.166;4.470;2022-12-18T04:08:08;0.90;;;0.90;;
28188;SDS011;15471;51.166;4.470;2022-12-18T04:10:38;0.82;;;0.82;;
28188;SDS011;15471;51.166;4.470;2022-12-18T04:13:04;0.90;;;0.90;;
28188;SDS011;15471;51.166;4.470;2022-12-18T04:15:31;0.82;;;0.82;;
28188;SDS011;15471;51.166;4.470;2022-12-18T04:17:59;0.82;;;0.82;;
28188;SDS011;15471;51.166;4.470;2022-12-18T04:20:34;0.90;;;0.90;;
28188;SDS011;15471;51.166;4.470;2022-12-18T04:23:02;0.90;;;0.90;;
28188;SDS011;15471;51.166;4.470;2022-12-18T04:25:28;0.80;;;0.80;;
28188;SDS011;15471;51.166;4.470;2022-12-18T04:28:16;0.80;;;0.80;;
28188;SDS011;15471;51.166;4.470;2022-12-18T04:30:43;0.90;;;0.90;;
28188;SDS011;15471;51.166;4.470;2022-12-18T04:33:09;0.90;;;0.90;;
28188;SDS011;15471;51.166;4.470;2022-12-18T04:35:37;0.90;;;0.90;;
28188;SDS011;15471;51.166;4.470;2022-12-18T04:38:03;0.90;;;0.90;;
28188;SDS011;15471;51.166;4.470;2022-12-18T04:40:30;0.90;;;0.90;;
28188;SDS011;15471;51.166;4.470;2022-12-18T04:42:56;0.90;;;0.90;;
28188;SDS011;15471;51.166;4.470;2022-12-18T04:45:22;0.90;;;0.90;;
28188;SDS011;15471;51.166;4.470;2022-12-18T04:47:47;0.90;;;0.90;;
28188;SDS011;15471;51.166;4.470;2022-12-18T04:50:13;0.80;;;0.80;;
28188;SDS011;15471;51.166;4.470;2022-12-18T04:52:39;0.90;;;0.90;;
28188;SDS011;15471;51.166;4.470;2022-12-18T04:55:05;0.90;;;0.90;;
28188;SDS011;15471;51.166;4.470;2022-12-18T04:57:31;0.90;;;0.90;;
28188;SDS011;15471;51.166;4.470;2022-12-18T04:59:57;0.90;;;0.90;;
28188;SDS011;15471;51.166;4.470;2022-12-18T05:02:22;0.90;;;0.90;;
28188;SDS011;15471;51.166;4.470;2022-12-18T05:04:48;0.80;;;0.80;;
28188;SDS011;15471;51.166;4.470;2022-12-18T05:07:14;0.90;;;0.90;;
28188;SDS011;15471;51.166;4.470;2022-12-18T05:09:40;0.90;;;0.90;;
28188;SDS011;15471;51.166;4.470;2022-12-18T05:12:05;0.90;;;0.90;;
28188;SDS011;15471;51.166;4.470;2022-12-18T05:14:31;0.90;;;0.90;;
28188;SDS011;15471;51.166;4.470;2022-12-18T05:16:57;0.80;;;0.80;;
28188;SDS011;15471;51.166;4.470;2022-12-18T05:19:23;0.80;;;0.80;;
28188;SDS011;15471;51.166;4.470;2022-12-18T05:21:48;0.90;;;0.90;;
28188;SDS011;15471;51.166;4.470;2022-12-18T05:24:14;0.88;;;0.88;;
28188;SDS011;15471;51.166;4.470;2022-12-18T05:26:40;0.90;;;0.90;;
28188;SDS011;15471;51.166;4.470;2022-12-18T05:29:06;0.90;;;0.90;;
28188;SDS011;15471;51.166;4.470;2022-12-18T05:31:32;0.82;;;0.82;;
28188;SDS011;15471;51.166;4.470;2022-12-18T05:33:57;0.90;;;0.90;;
28188;SDS011;15471;51.166;4.470;2022-12-18T05:36:23;0.90;;;0.90;;
28188;SDS011;15471;51.166;4.470;2022-12-18T05:38:49;0.80;;;0.80;;
28188;SDS011;15471;51.166;4.470;2022-12-18T05:41:15;0.90;;;0.90;;
28188;SDS011;15471;51.166;4.470;2022-12-18T05:43:40;0.90;;;0.90;;
28188;SDS011;15471;51.166;4.470;2022-12-18T05:46:08;0.90;;;0.90;;
28188;SDS011;15471;51.166;4.470;2022-12-18T05:48:39;0.90;;;0.90;;
28188;SDS011;15471;51.166;4.470;2022-12-18T05:51:06;0.90;;;0.90;;
28188;SDS011;15471;51.166;4.470;2022-12-18T05:53:35;0.90;;;0.90;;
28188;SDS011;15471;51.166;4.470;2022-12-18T05:56:02;0.90;;;0.90;;
28188;SDS011;15471;51.166;4.470;2022-12-18T05:58:30;0.82;;;0.82;;
28188;SDS011;15471;51.166;4.470;2022-12-18T06:00:57;0.85;;;0.85;;
28188;SDS011;15471;51.166;4.470;2022-12-18T06:03:23;0.80;;;0.80;;
28188;SDS011;15471;51.166;4.470;2022-12-18T06:05:49;0.90;;;0.90;;
28188;SDS011;15471;51.166;4.470;2022-12-18T06:08:15;0.80;;;0.80;;
28188;SDS011;15471;51.166;4.470;2022-12-18T06:10:41;0.80;;;0.80;;
28188;SDS011;15471;51.166;4.470;2022-12-18T06:13:07;0.80;;;0.80;;
28188;SDS011;15471;51.166;4.470;2022-12-18T06:15:35;0.80;;;0.80;;
28188;SDS011;15471;51.166;4.470;2022-12-18T06:18:02;0.80;;;0.80;;
28188;SDS011;15471;51.166;4.470;2022-12-18T06:20:28;0.90;;;0.90;;
28188;SDS011;15471;51.166;4.470;2022-12-18T06:22:55;0.90;;;0.90;;
28188;SDS011;15471;51.166;4.470;2022-12-18T06:25:20;0.90;;;0.90;;
28188;SDS011;15471;51.166;4.470;2022-12-18T06:27:47;0.80;;;0.80;;
28188;SDS011;15471;51.166;4.470;2022-12-18T06:30:13;0.80;;;0.80;;
28188;SDS011;15471;51.166;4.470;2022-12-18T06:32:39;0.80;;;0.80;;
28188;SDS011;15471;51.166;4.470;2022-12-18T06:35:05;0.80;;;0.80;;
28188;SDS011;15471;51.166;4.470;2022-12-18T06:37:31;0.90;;;0.90;;
28188;SDS011;15471;51.166;4.470;2022-12-18T06:39:57;0.80;;;0.80;;
28188;SDS011;15471;51.166;4.470;2022-12-18T06:42:23;0.90;;;0.90;;
28188;SDS011;15471;51.166;4.470;2022-12-18T06:44:50;0.90;;;0.90;;
28188;SDS011;15471;51.166;4.470;2022-12-18T06:47:15;0.80;;;0.80;;
28188;SDS011;15471;51.166;4.470;2022-12-18T06:49:41;0.90;;;0.90;;
28188;SDS011;15471;51.166;4.470;2022-12-18T06:52:08;0.90;;;0.90;;
28188;SDS011;15471;51.166;4.470;2022-12-18T06:54:34;0.90;;;0.90;;
28188;SDS011;15471;51.166;4.470;2022-12-18T06:56:59;0.80;;;0.80;;
28188;SDS011;15471;51.166;4.470;2022-12-18T06:59:25;0.90;;;0.90;;
28188;SDS011;15471;51.166;4.470;2022-12-18T07:01:51;0.90;;;0.90;;
28188;SDS011;15471;51.166;4.470;2022-12-18T07:04:17;0.90;;;0.90;;
28188;SDS011;15471;51.166;4.470;2022-12-18T07:06:42;0.80;;;0.80;;
28188;SDS011;15471;51.166;4.470;2022-12-18T07:09:08;0.80;;;0.80;;
28188;SDS011;15471;51.166;4.470;2022-12-18T07:11:34;0.80;;;0.80;;
28188;SDS011;15471;51.166;4.470;2022-12-18T07:14:00;0.88;;;0.88;;
28188;SDS011;15471;51.166;4.470;2022-12-18T07:16:26;0.80;;;0.80;;
28188;SDS011;15471;51.166;4.470;2022-12-18T07:18:54;0.80;;;0.80;;
28188;SDS011;15471;51.166;4.470;2022-12-18T07:21:21;0.90;;;0.90;;
28188;SDS011;15471;51.166;4.470;2022-12-18T07:23:48;0.90;;;0.90;;
28188;SDS011;15471;51.166;4.470;2022-12-18T07:26:14;0.80;;;0.80;;
28188;SDS011;15471;51.166;4.470;2022-12-18T07:28:42;0.80;;;0.80;;
28188;SDS011;15471;51.166;4.470;2022-12-18T07:31:10;0.80;;;0.80;;
28188;SDS011;15471;51.166;4.470;2022-12-18T07:33:38;0.90;;;0.90;;
28188;SDS011;15471;51.166;4.470;2022-12-18T07:36:05;0.90;;;0.90;;
28188;SDS011;15471;51.166;4.470;2022-12-18T07:38:32;0.80;;;0.80;;
28188;SDS011;15471;51.166;4.470;2022-12-18T07:41:01;0.90;;;0.90;;
28188;SDS011;15471;51.166;4.470;2022-12-18T07:43:31;1.00;;;1.00;;
28188;SDS011;15471;51.166;4.470;2022-12-18T07:45:57;0.80;;;0.80;;
28188;SDS011;15471;51.166;4.470;2022-12-18T07:48:23;0.80;;;0.80;;
28188;SDS011;15471;51.166;4.470;2022-12-18T07:50:48;0.82;;;0.82;;
28188;SDS011;15471;51.166;4.470;2022-12-18T07:53:14;0.80;;;0.80;;
28188;SDS011;15471;51.166;4.470;2022-12-18T07:55:40;0.80;;;0.80;;
28188;SDS011;15471;51.166;4.470;2022-12-18T07:58:07;0.80;;;0.80;;
28188;SDS011;15471;51.166;4.470;2022-12-18T08:00:33;0.88;;;0.88;;
28188;SDS011;15471;51.166;4.470;2022-12-18T08:03:00;0.90;;;0.90;;
28188;SDS011;15471;51.166;4.470;2022-12-18T08:05:26;0.75;;;0.75;;
28188;SDS011;15471;51.166;4.470;2022-12-18T08:07:52;0.90;;;0.90;;
28188;SDS011;15471;51.166;4.470;2022-12-18T08:10:19;0.90;;;0.90;;
28188;SDS011;15471;51.166;4.470;2022-12-18T08:12:45;0.80;;;0.80;;
28188;SDS011;15471;51.166;4.470;2022-12-18T08:15:14;0.90;;;0.90;;
28188;SDS011;15471;51.166;4.470;2022-12-18T08:17:40;0.80;;;0.80;;
28188;SDS011;15471;51.166;4.470;2022-12-18T08:20:06;0.90;;;0.90;;
28188;SDS011;15471;51.166;4.470;2022-12-18T08:22:33;0.80;;;0.80;;
28188;SDS011;15471;51.166;4.470;2022-12-18T08:25:00;0.80;;;0.80;;
28188;SDS011;15471;51.166;4.470;2022-12-18T08:27:27;0.80;;;0.80;;
28188;SDS011;15471;51.166;4.470;2022-12-18T08:29:53;0.80;;;0.80;;
28188;SDS011;15471;51.166;4.470;2022-12-18T08:32:18;0.80;;;0.80;;
28188;SDS011;15471;51.166;4.470;2022-12-18T08:34:44;0.80;;;0.80;;
28188;SDS011;15471;51.166;4.470;2022-12-18T08:37:10;0.70;;;0.70;;
28188;SDS011;15471;51.166;4.470;2022-12-18T08:39:36;0.80;;;0.80;;
28188;SDS011;15471;51.166;4.470;2022-12-18T08:42:01;0.63;;;0.63;;
28188;SDS011;15471;51.166;4.470;2022-12-18T08:44:46;0.80;;;0.80;;
28188;SDS011;15471;51.166;4.470;2022-12-18T08:47:12;0.80;;;0.80;;
28188;SDS011;15471;51.166;4.470;2022-12-18T08:49:38;0.70;;;0.70;;
28188;SDS011;15471;51.166;4.470;2022-12-18T08:52:03;0.70;;;0.70;;
28188;SDS011;15471;51.166;4.470;2022-12-18T08:54:29;0.70;;;0.70;;
28188;SDS011;15471;51.166;4.470;2022-12-18T08:56:55;0.77;;;0.77;;
28188;SDS011;15471;51.166;4.470;2022-12-18T08:59:21;0.70;;;0.70;;
28188;SDS011;15471;51.166;4.470;2022-12-18T09:01:48;0.70;;;0.70;;
28188;SDS011;15471;51.166;4.470;2022-12-18T09:04:14;0.70;;;0.70;;
28188;SDS011;15471;51.166;4.470;2022-12-18T09:06:40;0.70;;;0.70;;
28188;SDS011;15471;51.166;4.470;2022-12-18T09:09:06;0.70;;;0.70;;
28188;SDS011;15471;51.166;4.470;2022-12-18T09:11:32;0.68;;;0.68;;
28188;SDS011;15471;51.166;4.470;2022-12-18T09:13:59;0.70;;;0.70;;
28188;SDS011;15471;51.166;4.470;2022-12-18T09:16:26;0.60;;;0.60;;
28188;SDS011;15471;51.166;4.470;2022-12-18T09:18:56;0.70;;;0.70;;
28188;SDS011;15471;51.166;4.470;2022-12-18T09:21:27;0.60;;;0.60;;
28188;SDS011;15471;51.166;4.470;2022-12-18T09:23:54;0.60;;;0.60;;
28188;SDS011;15471;51.166;4.470;2022-12-18T09:26:22;0.60;;;0.60;;
28188;SDS011;15471;51.166;4.470;2022-12-18T09:28:51;0.70;;;0.70;;
28188;SDS011;15471;51.166;4.470;2022-12-18T09:31:21;0.60;;;0.60;;
28188;SDS011;15471;51.166;4.470;2022-12-18T09:33:47;0.60;;;0.60;;
28188;SDS011;15471;51.166;4.470;2022-12-18T09:36:14;0.60;;;0.60;;
28188;SDS011;15471;51.166;4.470;2022-12-18T09:38:41;0.60;;;0.60;;
28188;SDS011;15471;51.166;4.470;2022-12-18T09:43:52;0.60;;;0.60;;
28188;SDS011;15471;51.166;4.470;2022-12-18T09:46:45;0.60;;;0.60;;
28188;SDS011;15471;51.166;4.470;2022-12-18T09:49:13;0.60;;;0.60;;
28188;SDS011;15471;51.166;4.470;2022-12-18T09:51:49;0.60;;;0.60;;
28188;SDS011;15471;51.166;4.470;2022-12-18T09:54:23;0.60;;;0.60;;
28188;SDS011;15471;51.166;4.470;2022-12-18T09:57:10;0.60;;;0.60;;
28188;SDS011;15471;51.166;4.470;2022-12-18T09:59:40;0.60;;;0.60;;
28188;SDS011;15471;51.166;4.470;2022-12-18T10:02:22;0.60;;;0.60;;
28188;SDS011;15471;51.166;4.470;2022-12-18T10:07:45;0.60;;;0.60;;
28188;SDS011;15471;51.166;4.470;2022-12-18T10:10:21;0.50;;;0.50;;
28188;SDS011;15471;51.166;4.470;2022-12-18T10:15:51;0.60;;;0.60;;
28188;SDS011;15471;51.166;4.470;2022-12-18T10:21:13;0.50;;;0.50;;
28188;SDS011;15471;51.166;4.470;2022-12-18T10:26:28;0.50;;;0.50;;
28188;SDS011;15471;51.166;4.470;2022-12-18T10:28:53;0.52;;;0.52;;
28188;SDS011;15471;51.166;4.470;2022-12-18T10:31:23;0.50;;;0.50;;
28188;SDS011;15471;51.166;4.470;2022-12-18T10:33:49;0.50;;;0.50;;
28188;SDS011;15471;51.166;4.470;2022-12-18T10:36:15;0.50;;;0.50;;
28188;SDS011;15471;51.166;4.470;2022-12-18T10:38:41;0.50;;;0.50;;
28188;SDS011;15471;51.166;4.470;2022-12-18T10:46:37;0.50;;;0.50;;
28188;SDS011;15471;51.166;4.470;2022-12-18T10:49:03;0.50;;;0.50;;
28188;SDS011;15471;51.166;4.470;2022-12-18T10:51:30;0.50;;;0.50;;
28188;SDS011;15471;51.166;4.470;2022-12-18T10:56:30;0.50;;;0.50;;
28188;SDS011;15471;51.166;4.470;2022-12-18T10:59:03;0.47;;;0.47;;
28188;SDS011;15471;51.166;4.470;2022-12-18T11:07:15;0.50;;;0.50;;
28188;SDS011;15471;51.166;4.470;2022-12-18T11:09:40;0.50;;;0.50;;
28188;SDS011;15471;51.166;4.470;2022-12-18T11:14:44;0.50;;;0.50;;
28188;SDS011;15471;51.166;4.470;2022-12-18T11:17:25;0.50;;;0.50;;
28188;SDS011;15471;51.166;4.470;2022-12-18T11:20:01;0.50;;;0.50;;
28188;SDS011;15471;51.166;4.470;2022-12-18T11:22:33;0.43;;;0.43;;
28188;SDS011;15471;51.166;4.470;2022-12-18T11:25:02;0.43;;;0.43;;
28188;SDS011;15471;51.166;4.470;2022-12-18T11:27:48;0.40;;;0.40;;
28188;SDS011;15471;51.166;4.470;2022-12-18T11:32:54;0.40;;;0.40;;
28188;SDS011;15471;51.166;4.470;2022-12-18T11:38:02;0.40;;;0.40;;
28188;SDS011;15471;51.166;4.470;2022-12-18T11:40:36;0.40;;;0.40;;
28188;SDS011;15471;51.166;4.470;2022-12-18T11:45:35;0.40;;;0.40;;
28188;SDS011;15471;51.166;4.470;2022-12-18T11:48:15;0.40;;;0.40;;
28188;SDS011;15471;51.166;4.470;2022-12-18T11:53:17;0.40;;;0.40;;
28188;SDS011;15471;51.166;4.470;2022-12-18T12:07:12;0.40;;;0.40;;
28188;SDS011;15471;51.166;4.470;2022-12-18T12:15:32;0.40;;;0.40;;
28188;SDS011;15471;51.166;4.470;2022-12-18T12:23:28;0.40;;;0.40;;
28188;SDS011;15471;51.166;4.470;2022-12-18T12:26:04;0.40;;;0.40;;
28188;SDS011;15471;51.166;4.470;2022-12-18T12:37:26;0.40;;;0.40;;
28188;SDS011;15471;51.166;4.470;2022-12-18T12:39:57;0.40;;;0.40;;
28188;SDS011;15471;51.166;4.470;2022-12-18T12:42:45;0.40;;;0.40;;
28188;SDS011;15471;51.166;4.470;2022-12-18T12:45:36;0.40;;;0.40;;
28188;SDS011;15471;51.166;4.470;2022-12-18T12:48:05;0.40;;;0.40;;
28188;SDS011;15471;51.166;4.470;2022-12-18T12:50:53;0.30;;;0.30;;
28188;SDS011;15471;51.166;4.470;2022-12-18T12:53:22;0.30;;;0.30;;
28188;SDS011;15471;51.166;4.470;2022-12-18T12:55:55;0.40;;;0.40;;
28188;SDS011;15471;51.166;4.470;2022-12-18T13:06:45;0.40;;;0.40;;
28188;SDS011;15471;51.166;4.470;2022-12-18T13:09:18;0.40;;;0.40;;
28188;SDS011;15471;51.166;4.470;2022-12-18T13:11:44;0.40;;;0.40;;
28188;SDS011;15471;51.166;4.470;2022-12-18T13:14:34;0.40;;;0.40;;
28188;SDS011;15471;51.166;4.470;2022-12-18T13:17:16;0.40;;;0.40;;
28188;SDS011;15471;51.166;4.470;2022-12-18T13:22:24;0.40;;;0.40;;
28188;SDS011;15471;51.166;4.470;2022-12-18T13:24:54;0.40;;;0.40;;
28188;SDS011;15471;51.166;4.470;2022-12-18T13:43:47;0.40;;;0.40;;
28188;SDS011;15471;51.166;4.470;2022-12-18T13:46:27;0.40;;;0.40;;
28188;SDS011;15471;51.166;4.470;2022-12-18T13:51:42;0.30;;;0.30;;
28188;SDS011;15471;51.166;4.470;2022-12-18T13:54:33;0.40;;;0.40;;
28188;SDS011;15471;51.166;4.470;2022-12-18T13:57:05;0.32;;;0.32;;
28188;SDS011;15471;51.166;4.470;2022-12-18T13:59:50;0.40;;;0.40;;
28188;SDS011;15471;51.166;4.470;2022-12-18T14:02:17;0.30;;;0.30;;
28188;SDS011;15471;51.166;4.470;2022-12-18T14:04:48;0.40;;;0.40;;
28188;SDS011;15471;51.166;4.470;2022-12-18T14:09:46;0.40;;;0.40;;
28188;SDS011;15471;51.166;4.470;2022-12-18T14:12:17;0.40;;;0.40;;
28188;SDS011;15471;51.166;4.470;2022-12-18T14:15:05;0.38;;;0.38;;
28188;SDS011;15471;51.166;4.470;2022-12-18T14:17:42;0.40;;;0.40;;
28188;SDS011;15471;51.166;4.470;2022-12-18T14:20:13;0.40;;;0.40;;
28188;SDS011;15471;51.166;4.470;2022-12-18T14:25:16;0.30;;;0.30;;
28188;SDS011;15471;51.166;4.470;2022-12-18T14:27:45;0.40;;;0.40;;
28188;SDS011;15471;51.166;4.470;2022-12-18T14:30:28;0.40;;;0.40;;
28188;SDS011;15471;51.166;4.470;2022-12-18T14:33:03;0.40;;;0.40;;
28188;SDS011;15471;51.166;4.470;2022-12-18T14:41:05;0.40;;;0.40;;
28188;SDS011;15471;51.166;4.470;2022-12-18T14:43:39;0.40;;;0.40;;
28188;SDS011;15471;51.166;4.470;2022-12-18T14:46:25;0.40;;;0.40;;
28188;SDS011;15471;51.166;4.470;2022-12-18T14:48:58;0.30;;;0.30;;
28188;SDS011;15471;51.166;4.470;2022-12-18T14:51:29;0.40;;;0.40;;
28188;SDS011;15471;51.166;4.470;2022-12-18T14:53:59;0.40;;;0.40;;
28188;SDS011;15471;51.166;4.470;2022-12-18T14:56:36;0.40;;;0.40;;
28188;SDS011;15471;51.166;4.470;2022-12-18T14:59:16;0.40;;;0.40;;
28188;SDS011;15471;51.166;4.470;2022-12-18T15:12:48;0.30;;;0.30;;
28188;SDS011;15471;51.166;4.470;2022-12-18T15:17:59;0.40;;;0.40;;
28188;SDS011;15471;51.166;4.470;2022-12-18T15:20:26;0.40;;;0.40;;
28188;SDS011;15471;51.166;4.470;2022-12-18T15:22:53;0.40;;;0.40;;
28188;SDS011;15471;51.166;4.470;2022-12-18T15:25:31;0.40;;;0.40;;
28188;SDS011;15471;51.166;4.470;2022-12-18T15:28:01;0.30;;;0.30;;
28188;SDS011;15471;51.166;4.470;2022-12-18T15:30:28;0.32;;;0.32;;
28188;SDS011;15471;51.166;4.470;2022-12-18T15:35:55;0.40;;;0.40;;
28188;SDS011;15471;51.166;4.470;2022-12-18T15:38:21;0.30;;;0.30;;
28188;SDS011;15471;51.166;4.470;2022-12-18T15:40:47;0.40;;;0.40;;
28188;SDS011;15471;51.166;4.470;2022-12-18T15:43:13;0.40;;;0.40;;
28188;SDS011;15471;51.166;4.470;2022-12-18T15:45:58;0.40;;;0.40;;
28188;SDS011;15471;51.166;4.470;2022-12-18T15:48:24;0.40;;;0.40;;
28188;SDS011;15471;51.166;4.470;2022-12-18T15:50:50;0.40;;;0.40;;
28188;SDS011;15471;51.166;4.470;2022-12-18T15:53:18;0.40;;;0.40;;
28188;SDS011;15471;51.166;4.470;2022-12-18T15:55:44;0.40;;;0.40;;
28188;SDS011;15471;51.166;4.470;2022-12-18T15:58:29;0.40;;;0.40;;
28188;SDS011;15471;51.166;4.470;2022-12-18T16:00:55;0.40;;;0.40;;
28188;SDS011;15471;51.166;4.470;2022-12-18T16:03:24;0.40;;;0.40;;
28188;SDS011;15471;51.166;4.470;2022-12-18T16:05:50;0.40;;;0.40;;
28188;SDS011;15471;51.166;4.470;2022-12-18T16:08:15;0.40;;;0.40;;
28188;SDS011;15471;51.166;4.470;2022-12-18T16:10:41;0.30;;;0.30;;
28188;SDS011;15471;51.166;4.470;2022-12-18T16:13:10;0.40;;;0.40;;
28188;SDS011;15471;51.166;4.470;2022-12-18T16:15:39;0.40;;;0.40;;
28188;SDS011;15471;51.166;4.470;2022-12-18T16:18:05;0.40;;;0.40;;
28188;SDS011;15471;51.166;4.470;2022-12-18T16:20:30;0.38;;;0.38;;
28188;SDS011;15471;51.166;4.470;2022-12-18T16:22:56;0.40;;;0.40;;
28188;SDS011;15471;51.166;4.470;2022-12-18T16:25:23;0.40;;;0.40;;
28188;SDS011;15471;51.166;4.470;2022-12-18T16:27:53;0.40;;;0.40;;
28188;SDS011;15471;51.166;4.470;2022-12-18T16:30:21;0.40;;;0.40;;
28188;SDS011;15471;51.166;4.470;2022-12-18T16:32:49;0.38;;;0.38;;
28188;SDS011;15471;51.166;4.470;2022-12-18T16:35:15;0.30;;;0.30;;
28188;SDS011;15471;51.166;4.470;2022-12-18T16:37:41;0.30;;;0.30;;
28188;SDS011;15471;51.166;4.470;2022-12-18T16:40:09;0.40;;;0.40;;
28188;SDS011;15471;51.166;4.470;2022-12-18T16:42:37;0.30;;;0.30;;
28188;SDS011;15471;51.166;4.470;2022-12-18T16:45:04;0.30;;;0.30;;
28188;SDS011;15471;51.166;4.470;2022-12-18T16:47:31;0.30;;;0.30;;
28188;SDS011;15471;51.166;4.470;2022-12-18T16:49:57;0.30;;;0.30;;
28188;SDS011;15471;51.166;4.470;2022-12-18T16:52:24;0.30;;;0.30;;
28188;SDS011;15471;51.166;4.470;2022-12-18T16:54:50;0.30;;;0.30;;
28188;SDS011;15471;51.166;4.470;2022-12-18T16:57:17;0.30;;;0.30;;
28188;SDS011;15471;51.166;4.470;2022-12-18T16:59:44;0.40;;;0.40;;
28188;SDS011;15471;51.166;4.470;2022-12-18T17:02:12;0.32;;;0.32;;
28188;SDS011;15471;51.166;4.470;2022-12-18T17:04:40;0.30;;;0.30;;
28188;SDS011;15471;51.166;4.470;2022-12-18T17:07:06;0.30;;;0.30;;
28188;SDS011;15471;51.166;4.470;2022-12-18T17:09:32;0.30;;;0.30;;
28188;SDS011;15471;51.166;4.470;2022-12-18T17:11:58;0.30;;;0.30;;
28188;SDS011;15471;51.166;4.470;2022-12-18T17:14:24;0.30;;;0.30;;
28188;SDS011;15471;51.166;4.470;2022-12-18T17:16:51;0.30;;;0.30;;
28188;SDS011;15471;51.166;4.470;2022-12-18T17:19:18;0.30;;;0.30;;
28188;SDS011;15471;51.166;4.470;2022-12-18T17:21:46;0.30;;;0.30;;
28188;SDS011;15471;51.166;4.470;2022-12-18T17:24:13;0.30;;;0.30;;
28188;SDS011;15471;51.166;4.470;2022-12-18T17:26:39;0.30;;;0.30;;
28188;SDS011;15471;51.166;4.470;2022-12-18T17:29:06;0.30;;;0.30;;
28188;SDS011;15471;51.166;4.470;2022-12-18T17:31:32;0.30;;;0.30;;
28188;SDS011;15471;51.166;4.470;2022-12-18T17:33:59;0.30;;;0.30;;
28188;SDS011;15471;51.166;4.470;2022-12-18T17:36:26;0.30;;;0.30;;
28188;SDS011;15471;51.166;4.470;2022-12-18T17:38:54;0.30;;;0.30;;
28188;SDS011;15471;51.166;4.470;2022-12-18T17:41:21;0.30;;;0.30;;
28188;SDS011;15471;51.166;4.470;2022-12-18T17:43:52;0.30;;;0.30;;
28188;SDS011;15471;51.166;4.470;2022-12-18T17:46:20;0.30;;;0.30;;
28188;SDS011;15471;51.166;4.470;2022-12-18T17:48:46;0.30;;;0.30;;